Terminal Aerodrome Forecast
Issued by NWS

Current Version | Previous Version | Text Only | Print | Product List | Glossary On
Versions: 1 2 3 4 5 6 7 8 9 10 11 12
000
FTAK31 PANC 232341
TAFAGK
TAF
PAGK 232341Z 2400/2424 16012G18KT P6SM BKN090
     FM241800 16022G35KT P6SM BKN060=

USA.gov is the U.S. government's official web portal to all federal, state and local government web resources and services.